Terminal Aerodrome Forecast
Issued by NWS

Home | Current Version | Previous Version | Text Only | Print | Product List | Glossary On
Versions: 1 2 3 4 5 6 7 8 9 10 11 12 13 14
000
FTAK31 PAJN 031700 RRA
TAFAPG
TAF
PAPG 031745Z 0318/0418 VRB05KT P6SM -RA FEW020 BKN030 OVC040
     FM040100 VRB04KT P6SM VCSH SCT025 BKN035 OVC050
     FM040600 VRB03KT P6SM SCT015 BKN040
     FM041500 08006KT P6SM -RA BKN035 OVC060
      AMD LTD TO CLD VIS AND WIND 0406/0415=

USA.gov is the U.S. government's official web portal to all federal, state and local government web resources and services.